sensor_id;sensor_type;location;lat;lon;timestamp;P1;durP1;ratioP1;P2;durP2;ratioP2
1000;SDS011;489;47.806;12.858;2023-05-20T00:01:37;8.63;;;7.73;;
1000;SDS011;489;47.806;12.858;2023-05-20T00:03:39;7.93;;;7.23;;
1000;SDS011;489;47.806;12.858;2023-05-20T00:05:41;7.97;;;7.17;;
1000;SDS011;489;47.806;12.858;2023-05-20T00:07:43;8.50;;;7.70;;
1000;SDS011;489;47.806;12.858;2023-05-20T00:09:45;10.33;;;7.80;;
1000;SDS011;489;47.806;12.858;2023-05-20T00:11:47;8.17;;;7.37;;
1000;SDS011;489;47.806;12.858;2023-05-20T00:13:51;9.37;;;8.47;;
1000;SDS011;489;47.806;12.858;2023-05-20T00:15:53;8.97;;;8.07;;
1000;SDS011;489;47.806;12.858;2023-05-20T00:17:55;8.67;;;7.87;;
1000;SDS011;489;47.806;12.858;2023-05-20T00:19:58;8.47;;;7.67;;
1000;SDS011;489;47.806;12.858;2023-05-20T00:22:00;9.23;;;8.33;;
1000;SDS011;489;47.806;12.858;2023-05-20T00:24:02;9.77;;;8.77;;
1000;SDS011;489;47.806;12.858;2023-05-20T00:26:04;9.63;;;7.83;;
1000;SDS011;489;47.806;12.858;2023-05-20T00:28:06;9.07;;;8.17;;
1000;SDS011;489;47.806;12.858;2023-05-20T00:30:10;9.10;;;8.20;;
1000;SDS011;489;47.806;12.858;2023-05-20T00:32:12;9.40;;;8.50;;
1000;SDS011;489;47.806;12.858;2023-05-20T00:34:14;8.93;;;8.03;;
1000;SDS011;489;47.806;12.858;2023-05-20T00:36:16;9.40;;;8.40;;
1000;SDS011;489;47.806;12.858;2023-05-20T00:38:18;9.53;;;8.63;;
1000;SDS011;489;47.806;12.858;2023-05-20T00:40:21;9.20;;;8.17;;
1000;SDS011;489;47.806;12.858;2023-05-20T00:42:25;8.17;;;7.37;;
1000;SDS011;489;47.806;12.858;2023-05-20T00:44:28;8.53;;;7.73;;
1000;SDS011;489;47.806;12.858;2023-05-20T00:46:31;7.53;;;6.90;;
1000;SDS011;489;47.806;12.858;2023-05-20T00:48:36;8.53;;;7.73;;
1000;SDS011;489;47.806;12.858;2023-05-20T00:50:41;8.37;;;7.57;;
1000;SDS011;489;47.806;12.858;2023-05-20T00:52:43;9.40;;;7.10;;
1000;SDS011;489;47.806;12.858;2023-05-20T00:54:49;8.63;;;7.83;;
1000;SDS011;489;47.806;12.858;2023-05-20T00:56:51;6.90;;;6.27;;
1000;SDS011;489;47.806;12.858;2023-05-20T00:58:54;8.07;;;7.27;;
1000;SDS011;489;47.806;12.858;2023-05-20T01:00:56;7.90;;;7.17;;
1000;SDS011;489;47.806;12.858;2023-05-20T01:03:00;7.03;;;6.43;;
1000;SDS011;489;47.806;12.858;2023-05-20T01:05:02;7.60;;;6.90;;
1000;SDS011;489;47.806;12.858;2023-05-20T01:07:04;7.73;;;7.00;;
1000;SDS011;489;47.806;12.858;2023-05-20T01:09:07;7.10;;;6.50;;
1000;SDS011;489;47.806;12.858;2023-05-20T01:11:11;7.10;;;6.17;;
1000;SDS011;489;47.806;12.858;2023-05-20T01:13:19;6.80;;;6.10;;
1000;SDS011;489;47.806;12.858;2023-05-20T01:15:23;6.43;;;5.83;;
1000;SDS011;489;47.806;12.858;2023-05-20T01:17:29;7.60;;;6.80;;
1000;SDS011;489;47.806;12.858;2023-05-20T01:19:34;7.13;;;6.43;;
1000;SDS011;489;47.806;12.858;2023-05-20T01:21:37;6.70;;;6.00;;
1000;SDS011;489;47.806;12.858;2023-05-20T01:23:40;6.77;;;6.17;;
1000;SDS011;489;47.806;12.858;2023-05-20T01:25:43;6.37;;;5.87;;
1000;SDS011;489;47.806;12.858;2023-05-20T01:27:47;6.73;;;5.60;;
1000;SDS011;489;47.806;12.858;2023-05-20T01:29:50;6.33;;;5.73;;
1000;SDS011;489;47.806;12.858;2023-05-20T01:31:54;6.90;;;6.30;;
1000;SDS011;489;47.806;12.858;2023-05-20T01:33:58;6.20;;;5.60;;
1000;SDS011;489;47.806;12.858;2023-05-20T01:36:02;5.90;;;5.40;;
1000;SDS011;489;47.806;12.858;2023-05-20T01:38:05;5.83;;;5.33;;
1000;SDS011;489;47.806;12.858;2023-05-20T01:40:10;6.53;;;6.00;;
1000;SDS011;489;47.806;12.858;2023-05-20T01:42:13;6.43;;;5.83;;
1000;SDS011;489;47.806;12.858;2023-05-20T01:44:15;7.13;;;6.43;;
1000;SDS011;489;47.806;12.858;2023-05-20T01:46:17;7.13;;;6.33;;
1000;SDS011;489;47.806;12.858;2023-05-20T01:48:22;6.43;;;5.83;;
1000;SDS011;489;47.806;12.858;2023-05-20T01:50:25;5.97;;;5.47;;
1000;SDS011;489;47.806;12.858;2023-05-20T01:52:27;6.70;;;6.10;;
1000;SDS011;489;47.806;12.858;2023-05-20T01:54:31;6.03;;;5.47;;
1000;SDS011;489;47.806;12.858;2023-05-20T01:56:34;6.70;;;5.53;;
1000;SDS011;489;47.806;12.858;2023-05-20T01:58:36;6.10;;;5.50;;
1000;SDS011;489;47.806;12.858;2023-05-20T02:00:38;6.67;;;5.30;;
1000;SDS011;489;47.806;12.858;2023-05-20T02:02:40;5.60;;;5.10;;
1000;SDS011;489;47.806;12.858;2023-05-20T02:04:45;5.00;;;4.60;;
1000;SDS011;489;47.806;12.858;2023-05-20T02:06:49;5.77;;;5.20;;
1000;SDS011;489;47.806;12.858;2023-05-20T02:08:50;5.27;;;4.70;;
1000;SDS011;489;47.806;12.858;2023-05-20T02:10:53;5.33;;;4.93;;
1000;SDS011;489;47.806;12.858;2023-05-20T02:12:56;5.20;;;4.80;;
1000;SDS011;489;47.806;12.858;2023-05-20T02:14:59;5.00;;;4.60;;
1000;SDS011;489;47.806;12.858;2023-05-20T02:17:01;6.00;;;5.33;;
1000;SDS011;489;47.806;12.858;2023-05-20T02:19:04;7.27;;;5.53;;
1000;SDS011;489;47.806;12.858;2023-05-20T02:21:12;6.03;;;5.43;;
1000;SDS011;489;47.806;12.858;2023-05-20T02:23:14;6.50;;;5.73;;
1000;SDS011;489;47.806;12.858;2023-05-20T02:25:16;6.87;;;6.17;;
1000;SDS011;489;47.806;12.858;2023-05-20T02:27:18;6.57;;;5.90;;
1000;SDS011;489;47.806;12.858;2023-05-20T02:29:22;5.50;;;5.00;;
1000;SDS011;489;47.806;12.858;2023-05-20T02:31:25;5.70;;;5.10;;
1000;SDS011;489;47.806;12.858;2023-05-20T02:33:28;6.77;;;4.87;;
1000;SDS011;489;47.806;12.858;2023-05-20T02:35:30;6.30;;;5.70;;
1000;SDS011;489;47.806;12.858;2023-05-20T02:37:32;6.57;;;5.47;;
1000;SDS011;489;47.806;12.858;2023-05-20T02:39:34;6.10;;;5.17;;
1000;SDS011;489;47.806;12.858;2023-05-20T02:41:36;5.47;;;4.97;;
1000;SDS011;489;47.806;12.858;2023-05-20T02:43:38;5.63;;;5.13;;
1000;SDS011;489;47.806;12.858;2023-05-20T02:45:42;5.50;;;5.00;;
1000;SDS011;489;47.806;12.858;2023-05-20T02:47:44;5.73;;;5.23;;
1000;SDS011;489;47.806;12.858;2023-05-20T02:49:46;5.27;;;4.87;;
1000;SDS011;489;47.806;12.858;2023-05-20T02:51:49;5.93;;;5.43;;
1000;SDS011;489;47.806;12.858;2023-05-20T02:53:51;6.20;;;5.60;;
1000;SDS011;489;47.806;12.858;2023-05-20T02:55:56;6.07;;;5.47;;
1000;SDS011;489;47.806;12.858;2023-05-20T02:57:58;5.80;;;5.30;;
1000;SDS011;489;47.806;12.858;2023-05-20T03:00:01;4.67;;;4.20;;
1000;SDS011;489;47.806;12.858;2023-05-20T03:02:05;6.00;;;5.40;;
1000;SDS011;489;47.806;12.858;2023-05-20T03:04:08;5.50;;;4.97;;
1000;SDS011;489;47.806;12.858;2023-05-20T03:06:11;5.43;;;4.93;;
1000;SDS011;489;47.806;12.858;2023-05-20T03:08:13;6.13;;;5.07;;
1000;SDS011;489;47.806;12.858;2023-05-20T03:10:15;6.70;;;5.30;;
1000;SDS011;489;47.806;12.858;2023-05-20T03:12:18;5.10;;;4.70;;
1000;SDS011;489;47.806;12.858;2023-05-20T03:14:19;6.23;;;5.60;;
1000;SDS011;489;47.806;12.858;2023-05-20T03:16:22;5.77;;;5.03;;
1000;SDS011;489;47.806;12.858;2023-05-20T03:18:26;5.20;;;4.70;;
1000;SDS011;489;47.806;12.858;2023-05-20T03:20:29;4.63;;;4.23;;
1000;SDS011;489;47.806;12.858;2023-05-20T03:22:32;4.80;;;4.40;;
1000;SDS011;489;47.806;12.858;2023-05-20T03:24:34;6.83;;;5.00;;
1000;SDS011;489;47.806;12.858;2023-05-20T03:26:36;6.20;;;5.60;;
1000;SDS011;489;47.806;12.858;2023-05-20T03:28:42;6.23;;;5.63;;
1000;SDS011;489;47.806;12.858;2023-05-20T03:30:44;6.53;;;5.80;;
1000;SDS011;489;47.806;12.858;2023-05-20T03:32:46;8.70;;;5.67;;
1000;SDS011;489;47.806;12.858;2023-05-20T03:34:50;6.70;;;5.40;;
1000;SDS011;489;47.806;12.858;2023-05-20T03:36:53;5.87;;;5.30;;
1000;SDS011;489;47.806;12.858;2023-05-20T03:38:57;5.40;;;4.73;;
1000;SDS011;489;47.806;12.858;2023-05-20T03:40:59;6.07;;;5.53;;
1000;SDS011;489;47.806;12.858;2023-05-20T03:43:01;5.80;;;5.30;;
1000;SDS011;489;47.806;12.858;2023-05-20T03:45:07;5.70;;;4.20;;
1000;SDS011;489;47.806;12.858;2023-05-20T03:47:16;4.40;;;4.00;;
1000;SDS011;489;47.806;12.858;2023-05-20T03:49:18;5.70;;;5.10;;
1000;SDS011;489;47.806;12.858;2023-05-20T03:51:22;6.27;;;5.67;;
1000;SDS011;489;47.806;12.858;2023-05-20T03:53:25;6.07;;;5.50;;
1000;SDS011;489;47.806;12.858;2023-05-20T03:55:27;7.47;;;6.20;;
1000;SDS011;489;47.806;12.858;2023-05-20T03:57:29;6.07;;;5.53;;
1000;SDS011;489;47.806;12.858;2023-05-20T03:59:31;6.63;;;5.93;;
1000;SDS011;489;47.806;12.858;2023-05-20T04:01:33;7.10;;;6.40;;
1000;SDS011;489;47.806;12.858;2023-05-20T04:03:36;7.10;;;6.40;;
1000;SDS011;489;47.806;12.858;2023-05-20T04:05:38;7.93;;;7.13;;
1000;SDS011;489;47.806;12.858;2023-05-20T04:07:50;8.03;;;7.13;;
1000;SDS011;489;47.806;12.858;2023-05-20T04:09:53;7.80;;;7.10;;
1000;SDS011;489;47.806;12.858;2023-05-20T04:11:56;8.40;;;6.80;;
1000;SDS011;489;47.806;12.858;2023-05-20T04:13:59;8.30;;;7.40;;
1000;SDS011;489;47.806;12.858;2023-05-20T04:16:01;7.00;;;6.40;;
1000;SDS011;489;47.806;12.858;2023-05-20T04:18:05;7.00;;;6.40;;
1000;SDS011;489;47.806;12.858;2023-05-20T04:20:07;7.70;;;7.00;;
1000;SDS011;489;47.806;12.858;2023-05-20T04:22:11;6.27;;;5.77;;
1000;SDS011;489;47.806;12.858;2023-05-20T04:24:14;7.83;;;7.13;;
1000;SDS011;489;47.806;12.858;2023-05-20T04:26:16;6.60;;;6.00;;
1000;SDS011;489;47.806;12.858;2023-05-20T04:28:20;7.57;;;6.97;;
1000;SDS011;489;47.806;12.858;2023-05-20T04:30:23;7.97;;;7.17;;
1000;SDS011;489;47.806;12.858;2023-05-20T04:32:25;7.63;;;6.93;;
1000;SDS011;489;47.806;12.858;2023-05-20T04:34:28;8.03;;;7.20;;
1000;SDS011;489;47.806;12.858;2023-05-20T04:36:30;8.47;;;7.70;;
1000;SDS011;489;47.806;12.858;2023-05-20T04:38:36;8.13;;;7.33;;
1000;SDS011;489;47.806;12.858;2023-05-20T04:40:41;7.70;;;7.00;;
1000;SDS011;489;47.806;12.858;2023-05-20T04:42:43;7.40;;;6.70;;
1000;SDS011;489;47.806;12.858;2023-05-20T04:44:45;7.87;;;7.00;;
1000;SDS011;489;47.806;12.858;2023-05-20T04:46:48;8.13;;;7.40;;
1000;SDS011;489;47.806;12.858;2023-05-20T04:49:09;8.87;;;7.97;;
1000;SDS011;489;47.806;12.858;2023-05-20T04:51:11;8.57;;;7.73;;
1000;SDS011;489;47.806;12.858;2023-05-20T04:53:13;8.37;;;7.50;;
1000;SDS011;489;47.806;12.858;2023-05-20T04:55:15;9.70;;;8.70;;
1000;SDS011;489;47.806;12.858;2023-05-20T04:57:20;9.13;;;8.23;;
1000;SDS011;489;47.806;12.858;2023-05-20T04:59:22;9.07;;;8.17;;
1000;SDS011;489;47.806;12.858;2023-05-20T05:01:25;7.77;;;6.97;;
1000;SDS011;489;47.806;12.858;2023-05-20T05:03:27;7.10;;;6.50;;
1000;SDS011;489;47.806;12.858;2023-05-20T05:05:30;7.23;;;6.53;;
1000;SDS011;489;47.806;12.858;2023-05-20T05:07:33;10.07;;;8.20;;
1000;SDS011;489;47.806;12.858;2023-05-20T05:09:35;9.60;;;8.03;;
1000;SDS011;489;47.806;12.858;2023-05-20T05:11:37;9.37;;;8.10;;
1000;SDS011;489;47.806;12.858;2023-05-20T05:13:41;8.40;;;7.57;;
1000;SDS011;489;47.806;12.858;2023-05-20T05:15:43;8.57;;;7.27;;
1000;SDS011;489;47.806;12.858;2023-05-20T05:17:45;8.00;;;7.30;;
1000;SDS011;489;47.806;12.858;2023-05-20T05:19:48;8.80;;;7.90;;
1000;SDS011;489;47.806;12.858;2023-05-20T05:21:51;7.53;;;6.83;;
1000;SDS011;489;47.806;12.858;2023-05-20T05:23:53;8.60;;;7.20;;
1000;SDS011;489;47.806;12.858;2023-05-20T05:25:55;7.47;;;6.80;;
1000;SDS011;489;47.806;12.858;2023-05-20T05:27:58;8.53;;;7.73;;
1000;SDS011;489;47.806;12.858;2023-05-20T05:30:01;9.40;;;8.50;;
1000;SDS011;489;47.806;12.858;2023-05-20T05:32:04;10.43;;;9.17;;
1000;SDS011;489;47.806;12.858;2023-05-20T05:34:06;9.07;;;8.27;;
1000;SDS011;489;47.806;12.858;2023-05-20T05:36:08;8.60;;;7.77;;
1000;SDS011;489;47.806;12.858;2023-05-20T05:38:10;10.40;;;9.40;;
1000;SDS011;489;47.806;12.858;2023-05-20T05:40:13;10.23;;;9.20;;
1000;SDS011;489;47.806;12.858;2023-05-20T05:42:15;11.00;;;10.00;;
1000;SDS011;489;47.806;12.858;2023-05-20T05:44:18;9.33;;;8.43;;
1000;SDS011;489;47.806;12.858;2023-05-20T05:46:21;9.67;;;8.80;;
1000;SDS011;489;47.806;12.858;2023-05-20T05:48:23;10.23;;;9.23;;
1000;SDS011;489;47.806;12.858;2023-05-20T05:50:25;10.30;;;8.63;;
1000;SDS011;489;47.806;12.858;2023-05-20T05:52:28;9.33;;;8.43;;
1000;SDS011;489;47.806;12.858;2023-05-20T05:54:30;9.43;;;8.53;;
1000;SDS011;489;47.806;12.858;2023-05-20T05:56:32;10.63;;;9.63;;
1000;SDS011;489;47.806;12.858;2023-05-20T05:58:34;10.03;;;8.97;;
1000;SDS011;489;47.806;12.858;2023-05-20T06:00:38;10.70;;;9.60;;
1000;SDS011;489;47.806;12.858;2023-05-20T06:02:42;11.23;;;10.13;;
1000;SDS011;489;47.806;12.858;2023-05-20T06:04:44;11.10;;;9.90;;
1000;SDS011;489;47.806;12.858;2023-05-20T06:06:46;10.30;;;8.43;;
1000;SDS011;489;47.806;12.858;2023-05-20T06:08:49;9.30;;;8.50;;
1000;SDS011;489;47.806;12.858;2023-05-20T06:10:52;10.73;;;9.20;;
1000;SDS011;489;47.806;12.858;2023-05-20T06:12:54;9.33;;;8.53;;
1000;SDS011;489;47.806;12.858;2023-05-20T06:14:56;9.57;;;8.67;;
1000;SDS011;489;47.806;12.858;2023-05-20T06:16:58;8.70;;;7.80;;
1000;SDS011;489;47.806;12.858;2023-05-20T06:19:02;10.20;;;9.20;;
1000;SDS011;489;47.806;12.858;2023-05-20T06:21:05;9.70;;;8.80;;
1000;SDS011;489;47.806;12.858;2023-05-20T06:23:07;10.50;;;9.47;;
1000;SDS011;489;47.806;12.858;2023-05-20T06:25:23;10.60;;;8.57;;
1000;SDS011;489;47.806;12.858;2023-05-20T06:27:26;9.53;;;8.57;;
1000;SDS011;489;47.806;12.858;2023-05-20T06:29:28;9.10;;;8.23;;
1000;SDS011;489;47.806;12.858;2023-05-20T06:31:30;8.90;;;8.10;;
1000;SDS011;489;47.806;12.858;2023-05-20T06:33:32;8.80;;;8.00;;
1000;SDS011;489;47.806;12.858;2023-05-20T06:35:40;8.80;;;8.00;;
1000;SDS011;489;47.806;12.858;2023-05-20T06:37:44;9.17;;;8.00;;
1000;SDS011;489;47.806;12.858;2023-05-20T06:39:46;7.80;;;7.00;;
1000;SDS011;489;47.806;12.858;2023-05-20T06:41:53;7.97;;;7.17;;
1000;SDS011;489;47.806;12.858;2023-05-20T06:44:02;9.20;;;8.37;;
1000;SDS011;489;47.806;12.858;2023-05-20T06:46:27;8.70;;;7.90;;
1000;SDS011;489;47.806;12.858;2023-05-20T06:48:35;8.80;;;8.00;;
1000;SDS011;489;47.806;12.858;2023-05-20T06:50:37;8.37;;;7.47;;
1000;SDS011;489;47.806;12.858;2023-05-20T06:52:40;8.40;;;7.67;;
1000;SDS011;489;47.806;12.858;2023-05-20T06:54:43;9.30;;;8.40;;
1000;SDS011;489;47.806;12.858;2023-05-20T06:56:45;9.43;;;7.80;;
1000;SDS011;489;47.806;12.858;2023-05-20T06:58:48;9.03;;;6.97;;
1000;SDS011;489;47.806;12.858;2023-05-20T07:00:50;9.07;;;8.17;;
1000;SDS011;489;47.806;12.858;2023-05-20T07:02:52;9.10;;;7.00;;
1000;SDS011;489;47.806;12.858;2023-05-20T07:04:54;8.20;;;7.50;;
1000;SDS011;489;47.806;12.858;2023-05-20T07:06:56;8.47;;;7.60;;
1000;SDS011;489;47.806;12.858;2023-05-20T07:09:00;7.97;;;7.30;;
1000;SDS011;489;47.806;12.858;2023-05-20T07:11:02;8.03;;;7.30;;
1000;SDS011;489;47.806;12.858;2023-05-20T07:13:04;7.73;;;7.03;;
1000;SDS011;489;47.806;12.858;2023-05-20T07:15:06;8.40;;;7.53;;
1000;SDS011;489;47.806;12.858;2023-05-20T07:17:09;8.20;;;7.50;;
1000;SDS011;489;47.806;12.858;2023-05-20T07:19:12;6.70;;;5.93;;
1000;SDS011;489;47.806;12.858;2023-05-20T07:21:14;6.40;;;5.80;;
1000;SDS011;489;47.806;12.858;2023-05-20T07:23:48;6.67;;;6.07;;
1000;SDS011;489;47.806;12.858;2023-05-20T07:25:53;6.90;;;6.20;;
1000;SDS011;489;47.806;12.858;2023-05-20T07:27:55;6.87;;;6.27;;
1000;SDS011;489;47.806;12.858;2023-05-20T07:29:57;6.70;;;6.10;;
1000;SDS011;489;47.806;12.858;2023-05-20T07:31:59;8.33;;;7.30;;
1000;SDS011;489;47.806;12.858;2023-05-20T07:34:01;7.40;;;6.60;;
1000;SDS011;489;47.806;12.858;2023-05-20T07:36:03;7.43;;;6.83;;
1000;SDS011;489;47.806;12.858;2023-05-20T07:38:06;8.50;;;7.70;;
1000;SDS011;489;47.806;12.858;2023-05-20T07:40:08;7.90;;;7.20;;
1000;SDS011;489;47.806;12.858;2023-05-20T07:42:13;7.57;;;6.87;;
1000;SDS011;489;47.806;12.858;2023-05-20T07:44:18;7.53;;;6.83;;
1000;SDS011;489;47.806;12.858;2023-05-20T07:46:23;8.77;;;5.70;;
1000;SDS011;489;47.806;12.858;2023-05-20T07:48:26;7.53;;;6.80;;
1000;SDS011;489;47.806;12.858;2023-05-20T07:50:28;7.40;;;6.60;;
1000;SDS011;489;47.806;12.858;2023-05-20T07:52:30;6.67;;;6.07;;
1000;SDS011;489;47.806;12.858;2023-05-20T07:54:33;7.47;;;6.73;;
1000;SDS011;489;47.806;12.858;2023-05-20T07:56:36;7.50;;;6.50;;
1000;SDS011;489;47.806;12.858;2023-05-20T07:58:41;8.80;;;6.90;;
1000;SDS011;489;47.806;12.858;2023-05-20T08:00:45;6.10;;;5.60;;
1000;SDS011;489;47.806;12.858;2023-05-20T08:02:47;7.60;;;6.90;;
1000;SDS011;489;47.806;12.858;2023-05-20T08:04:56;7.30;;;6.60;;
1000;SDS011;489;47.806;12.858;2023-05-20T08:06:58;6.70;;;6.10;;
1000;SDS011;489;47.806;12.858;2023-05-20T08:09:12;6.23;;;5.67;;
1000;SDS011;489;47.806;12.858;2023-05-20T08:11:19;7.03;;;6.43;;
1000;SDS011;489;47.806;12.858;2023-05-20T08:13:22;6.60;;;5.90;;
1000;SDS011;489;47.806;12.858;2023-05-20T08:15:27;6.33;;;5.73;;
1000;SDS011;489;47.806;12.858;2023-05-20T08:17:31;6.93;;;6.33;;
1000;SDS011;489;47.806;12.858;2023-05-20T08:19:33;6.60;;;6.00;;
1000;SDS011;489;47.806;12.858;2023-05-20T08:21:35;6.43;;;5.83;;
1000;SDS011;489;47.806;12.858;2023-05-20T08:23:37;5.80;;;5.27;;
1000;SDS011;489;47.806;12.858;2023-05-20T08:25:39;5.90;;;5.30;;
1000;SDS011;489;47.806;12.858;2023-05-20T08:27:43;5.40;;;5.00;;
1000;SDS011;489;47.806;12.858;2023-05-20T08:29:45;6.10;;;5.60;;
1000;SDS011;489;47.806;12.858;2023-05-20T08:31:50;5.20;;;4.70;;
1000;SDS011;489;47.806;12.858;2023-05-20T08:33:53;6.97;;;5.37;;
1000;SDS011;489;47.806;12.858;2023-05-20T08:35:55;6.40;;;5.40;;
1000;SDS011;489;47.806;12.858;2023-05-20T08:37:57;6.03;;;5.17;;
1000;SDS011;489;47.806;12.858;2023-05-20T08:40:00;5.20;;;4.80;;
1000;SDS011;489;47.806;12.858;2023-05-20T08:42:03;5.77;;;5.27;;
1000;SDS011;489;47.806;12.858;2023-05-20T08:44:06;5.80;;;5.30;;
1000;SDS011;489;47.806;12.858;2023-05-20T08:46:09;12.70;;;5.40;;
1000;SDS011;489;47.806;12.858;2023-05-20T08:48:13;5.93;;;5.43;;
1000;SDS011;489;47.806;12.858;2023-05-20T08:50:17;6.47;;;5.70;;
1000;SDS011;489;47.806;12.858;2023-05-20T08:54:22;6.13;;;5.53;;
1000;SDS011;489;47.806;12.858;2023-05-20T08:56:25;5.87;;;5.30;;
1000;SDS011;489;47.806;12.858;2023-05-20T08:58:28;6.13;;;5.53;;
1000;SDS011;489;47.806;12.858;2023-05-20T09:00:30;5.90;;;5.40;;
1000;SDS011;489;47.806;12.858;2023-05-20T09:02:32;6.67;;;6.07;;
1000;SDS011;489;47.806;12.858;2023-05-20T09:04:39;6.77;;;5.40;;
1000;SDS011;489;47.806;12.858;2023-05-20T09:06:41;6.20;;;5.60;;
1000;SDS011;489;47.806;12.858;2023-05-20T09:08:44;6.33;;;5.47;;
1000;SDS011;489;47.806;12.858;2023-05-20T09:10:47;5.00;;;4.60;;
1000;SDS011;489;47.806;12.858;2023-05-20T09:12:49;6.70;;;5.30;;
1000;SDS011;489;47.806;12.858;2023-05-20T09:14:51;5.27;;;4.77;;
1000;SDS011;489;47.806;12.858;2023-05-20T09:16:53;5.80;;;5.20;;
1000;SDS011;489;47.806;12.858;2023-05-20T09:18:55;6.10;;;5.50;;
1000;SDS011;489;47.806;12.858;2023-05-20T09:21:03;6.53;;;5.73;;
1000;SDS011;489;47.806;12.858;2023-05-20T09:23:06;5.30;;;4.83;;
1000;SDS011;489;47.806;12.858;2023-05-20T09:25:09;5.67;;;5.10;;
1000;SDS011;489;47.806;12.858;2023-05-20T09:27:12;5.70;;;5.20;;
1000;SDS011;489;47.806;12.858;2023-05-20T09:29:15;4.90;;;4.47;;
1000;SDS011;489;47.806;12.858;2023-05-20T09:31:18;4.37;;;4.00;;
1000;SDS011;489;47.806;12.858;2023-05-20T09:33:21;4.80;;;4.40;;
1000;SDS011;489;47.806;12.858;2023-05-20T09:35:29;4.23;;;3.90;;
1000;SDS011;489;47.806;12.858;2023-05-20T09:37:32;4.93;;;4.43;;
1000;SDS011;489;47.806;12.858;2023-05-20T09:39:38;3.20;;;2.90;;
1000;SDS011;489;47.806;12.858;2023-05-20T09:41:48;5.50;;;4.40;;
1000;SDS011;489;47.806;12.858;2023-05-20T09:43:56;3.80;;;3.50;;
1000;SDS011;489;47.806;12.858;2023-05-20T09:45:59;4.27;;;3.87;;
1000;SDS011;489;47.806;12.858;2023-05-20T09:48:02;3.90;;;3.50;;
1000;SDS011;489;47.806;12.858;2023-05-20T09:50:05;4.73;;;3.77;;
1000;SDS011;489;47.806;12.858;2023-05-20T09:52:09;4.40;;;3.93;;
1000;SDS011;489;47.806;12.858;2023-05-20T09:54:12;3.70;;;3.40;;
1000;SDS011;489;47.806;12.858;2023-05-20T09:56:14;4.57;;;4.13;;
1000;SDS011;489;47.806;12.858;2023-05-20T09:58:17;3.90;;;3.57;;
1000;SDS011;489;47.806;12.858;2023-05-20T10:00:20;4.53;;;4.13;;
1000;SDS011;489;47.806;12.858;2023-05-20T10:02:22;4.40;;;3.93;;
1000;SDS011;489;47.806;12.858;2023-05-20T10:04:24;4.97;;;4.07;;
1000;SDS011;489;47.806;12.858;2023-05-20T10:06:32;4.20;;;3.80;;
1000;SDS011;489;47.806;12.858;2023-05-20T10:08:46;4.63;;;4.23;;
1000;SDS011;489;47.806;12.858;2023-05-20T10:10:57;4.03;;;3.63;;
1000;SDS011;489;47.806;12.858;2023-05-20T10:13:08;4.93;;;4.43;;
1000;SDS011;489;47.806;12.858;2023-05-20T10:15:17;7.13;;;4.50;;
1000;SDS011;489;47.806;12.858;2023-05-20T10:17:27;4.97;;;4.47;;
1000;SDS011;489;47.806;12.858;2023-05-20T10:19:34;4.40;;;4.00;;
1000;SDS011;489;47.806;12.858;2023-05-20T10:21:37;4.27;;;3.87;;
1000;SDS011;489;47.806;12.858;2023-05-20T10:23:39;4.23;;;3.83;;
1000;SDS011;489;47.806;12.858;2023-05-20T10:25:48;4.03;;;3.60;;
1000;SDS011;489;47.806;12.858;2023-05-20T10:28:02;4.37;;;3.97;;
1000;SDS011;489;47.806;12.858;2023-05-20T10:30:13;4.43;;;4.03;;
1000;SDS011;489;47.806;12.858;2023-05-20T10:32:23;3.70;;;3.40;;
1000;SDS011;489;47.806;12.858;2023-05-20T10:34:26;4.23;;;3.90;;
1000;SDS011;489;47.806;12.858;2023-05-20T10:36:28;4.00;;;3.70;;
1000;SDS011;489;47.806;12.858;2023-05-20T10:38:31;4.57;;;4.17;;
1000;SDS011;489;47.806;12.858;2023-05-20T10:40:33;4.93;;;4.43;;
1000;SDS011;489;47.806;12.858;2023-05-20T10:42:35;4.60;;;4.20;;
1000;SDS011;489;47.806;12.858;2023-05-20T10:44:42;4.43;;;4.07;;
1000;SDS011;489;47.806;12.858;2023-05-20T10:46:44;4.50;;;4.10;;
1000;SDS011;489;47.806;12.858;2023-05-20T10:48:46;4.70;;;4.20;;
1000;SDS011;489;47.806;12.858;2023-05-20T10:50:48;5.03;;;4.53;;
1000;SDS011;489;47.806;12.858;2023-05-20T10:52:50;4.07;;;3.67;;
1000;SDS011;489;47.806;12.858;2023-05-20T10:54:56;4.87;;;4.37;;
1000;SDS011;489;47.806;12.858;2023-05-20T10:56:58;5.00;;;4.60;;
1000;SDS011;489;47.806;12.858;2023-05-20T10:59:01;4.30;;;4.00;;
1000;SDS011;489;47.806;12.858;2023-05-20T11:01:04;4.37;;;3.97;;
1000;SDS011;489;47.806;12.858;2023-05-20T11:03:06;4.30;;;4.00;;
1000;SDS011;489;47.806;12.858;2023-05-20T11:05:09;4.50;;;4.10;;
1000;SDS011;489;47.806;12.858;2023-05-20T11:07:11;6.43;;;4.47;;
1000;SDS011;489;47.806;12.858;2023-05-20T11:09:13;4.80;;;4.30;;
1000;SDS011;489;47.806;12.858;2023-05-20T11:11:17;5.80;;;5.30;;
1000;SDS011;489;47.806;12.858;2023-05-20T11:13:18;5.33;;;4.83;;
1000;SDS011;489;47.806;12.858;2023-05-20T11:15:21;6.40;;;5.80;;
1000;SDS011;489;47.806;12.858;2023-05-20T11:17:25;6.20;;;5.10;;
1000;SDS011;489;47.806;12.858;2023-05-20T11:19:27;5.10;;;4.20;;
1000;SDS011;489;47.806;12.858;2023-05-20T11:21:29;5.53;;;5.03;;
1000;SDS011;489;47.806;12.858;2023-05-20T11:23:31;6.03;;;5.10;;
1000;SDS011;489;47.806;12.858;2023-05-20T11:25:33;6.27;;;5.13;;
1000;SDS011;489;47.806;12.858;2023-05-20T11:27:37;5.33;;;4.83;;
1000;SDS011;489;47.806;12.858;2023-05-20T11:29:40;6.27;;;5.63;;
1000;SDS011;489;47.806;12.858;2023-05-20T11:31:42;6.20;;;5.60;;
1000;SDS011;489;47.806;12.858;2023-05-20T11:33:46;6.40;;;5.80;;
1000;SDS011;489;47.806;12.858;2023-05-20T11:35:49;6.93;;;5.70;;
1000;SDS011;489;47.806;12.858;2023-05-20T11:37:55;6.00;;;5.40;;
1000;SDS011;489;47.806;12.858;2023-05-20T11:40:04;4.97;;;4.57;;
1000;SDS011;489;47.806;12.858;2023-05-20T11:42:08;5.37;;;4.90;;
1000;SDS011;489;47.806;12.858;2023-05-20T11:44:10;6.30;;;5.70;;
1000;SDS011;489;47.806;12.858;2023-05-20T11:46:13;6.13;;;5.47;;
1000;SDS011;489;47.806;12.858;2023-05-20T11:48:15;4.77;;;4.37;;
1000;SDS011;489;47.806;12.858;2023-05-20T11:50:19;4.70;;;4.30;;
1000;SDS011;489;47.806;12.858;2023-05-20T11:52:20;7.60;;;5.20;;
1000;SDS011;489;47.806;12.858;2023-05-20T11:54:23;18.30;;;6.93;;
1000;SDS011;489;47.806;12.858;2023-05-20T11:56:26;5.20;;;4.70;;
1000;SDS011;489;47.806;12.858;2023-05-20T11:58:29;7.83;;;5.40;;
1000;SDS011;489;47.806;12.858;2023-05-20T12:00:32;6.07;;;5.20;;
1000;SDS011;489;47.806;12.858;2023-05-20T12:02:34;5.70;;;5.20;;
1000;SDS011;489;47.806;12.858;2023-05-20T12:04:36;5.73;;;4.90;;
1000;SDS011;489;47.806;12.858;2023-05-20T12:06:40;4.70;;;4.23;;
1000;SDS011;489;47.806;12.858;2023-05-20T12:08:43;5.60;;;4.93;;
1000;SDS011;489;47.806;12.858;2023-05-20T12:10:45;4.97;;;4.57;;
1000;SDS011;489;47.806;12.858;2023-05-20T12:12:47;5.30;;;4.80;;
1000;SDS011;489;47.806;12.858;2023-05-20T12:14:49;5.00;;;4.60;;
1000;SDS011;489;47.806;12.858;2023-05-20T12:16:51;5.37;;;4.60;;
1000;SDS011;489;47.806;12.858;2023-05-20T12:18:53;5.20;;;4.50;;
1000;SDS011;489;47.806;12.858;2023-05-20T12:20:55;6.13;;;4.57;;
1000;SDS011;489;47.806;12.858;2023-05-20T12:22:59;5.90;;;5.30;;
1000;SDS011;489;47.806;12.858;2023-05-20T12:25:01;5.70;;;4.53;;
1000;SDS011;489;47.806;12.858;2023-05-20T12:27:03;5.60;;;5.00;;
1000;SDS011;489;47.806;12.858;2023-05-20T12:29:05;5.77;;;4.50;;
1000;SDS011;489;47.806;12.858;2023-05-20T12:31:07;5.50;;;4.90;;
1000;SDS011;489;47.806;12.858;2023-05-20T12:33:09;6.87;;;4.60;;
1000;SDS011;489;47.806;12.858;2023-05-20T12:35:12;5.37;;;4.80;;
1000;SDS011;489;47.806;12.858;2023-05-20T12:37:14;4.97;;;4.57;;
1000;SDS011;489;47.806;12.858;2023-05-20T12:39:18;4.63;;;4.20;;
1000;SDS011;489;47.806;12.858;2023-05-20T12:41:20;4.77;;;4.37;;
1000;SDS011;489;47.806;12.858;2023-05-20T12:43:22;6.33;;;4.87;;
1000;SDS011;489;47.806;12.858;2023-05-20T12:45:24;4.87;;;4.37;;
1000;SDS011;489;47.806;12.858;2023-05-20T12:47:26;5.00;;;4.50;;
1000;SDS011;489;47.806;12.858;2023-05-20T12:49:28;5.37;;;4.33;;